createdAt,value
2019-03-18T00:00:31.456Z,99.90
2019-03-18T00:01:05.045Z,99.90
2019-03-18T00:01:37.524Z,99.90
2019-03-18T00:02:10.007Z,99.90
2019-03-18T00:02:42.496Z,99.90
2019-03-18T00:03:14.980Z,99.90
2019-03-18T00:03:47.809Z,99.90
2019-03-18T00:04:20.687Z,99.90
2019-03-18T00:04:53.551Z,99.90
2019-03-18T00:05:26.382Z,99.90
2019-03-18T00:05:58.880Z,99.90
2019-03-18T00:06:32.055Z,99.90
2019-03-18T00:07:04.540Z,99.90
2019-03-18T00:07:37.036Z,99.90
2019-03-18T00:08:10.160Z,99.80
2019-03-18T00:08:42.633Z,99.70
2019-03-18T00:09:15.804Z,99.80
2019-03-18T00:09:48.328Z,99.50
2019-03-18T00:10:20.808Z,99.50
2019-03-18T00:10:53.288Z,99.60
2019-03-18T00:11:25.781Z,99.70
2019-03-18T00:11:58.577Z,99.60
2019-03-18T00:12:31.058Z,99.50
2019-03-18T00:13:03.841Z,99.50
2019-03-18T00:13:36.617Z,99.50
2019-03-18T00:14:09.235Z,99.30
2019-03-18T00:14:42.048Z,99.30
2019-03-18T00:15:15.319Z,99.20
2019-03-18T00:15:48.500Z,99.10
2019-03-18T00:16:20.987Z,99.00
2019-03-18T00:16:53.834Z,99.00
2019-03-18T00:17:26.315Z,99.10
2019-03-18T00:17:59.193Z,99.30
2019-03-18T00:18:31.663Z,99.20
2019-03-18T00:19:04.153Z,99.10
2019-03-18T00:19:37.099Z,99.10
2019-03-18T00:20:10.343Z,99.30
2019-03-18T00:20:42.876Z,99.10
2019-03-18T00:21:15.671Z,99.00
2019-03-18T00:21:48.286Z,99.00
2019-03-18T00:22:20.758Z,99.00
2019-03-18T00:22:53.242Z,99.00
2019-03-18T00:23:25.732Z,99.00
2019-03-18T00:23:58.586Z,99.10
2019-03-18T00:24:31.478Z,99.00
2019-03-18T00:25:05.322Z,99.10
2019-03-18T00:25:37.811Z,99.30
2019-03-18T00:26:10.645Z,99.20
2019-03-18T00:26:43.567Z,99.20
2019-03-18T00:27:16.056Z,99.20
2019-03-18T00:27:48.553Z,99.30
2019-03-18T00:28:21.040Z,99.30
2019-03-18T00:28:53.888Z,99.40
2019-03-18T00:29:26.367Z,99.30
2019-03-18T00:29:58.847Z,99.30
2019-03-18T00:30:31.695Z,99.50
2019-03-18T00:31:04.261Z,99.30
2019-03-18T00:31:36.783Z,99.10
2019-03-18T00:32:09.600Z,99.10
2019-03-18T00:32:42.080Z,99.10
2019-03-18T00:33:14.568Z,99.00
2019-03-18T00:33:47.056Z,99.00
2019-03-18T00:34:19.660Z,99.00
2019-03-18T00:34:52.152Z,99.10
2019-03-18T00:35:24.642Z,98.90
2019-03-18T00:35:57.111Z,99.10
2019-03-18T00:36:29.925Z,99.20
2019-03-18T00:37:02.772Z,98.90
2019-03-18T00:37:35.259Z,98.90
2019-03-18T00:38:07.830Z,99.00
2019-03-18T00:38:41.011Z,98.80
2019-03-18T00:39:13.503Z,98.70
2019-03-18T00:39:46.317Z,98.70
2019-03-18T00:40:18.828Z,98.70
2019-03-18T00:40:51.448Z,98.50
2019-03-18T00:41:23.920Z,98.70
2019-03-18T00:41:56.413Z,98.40
2019-03-18T00:42:28.931Z,98.60
2019-03-18T00:43:01.395Z,98.40
2019-03-18T00:43:34.669Z,98.20
2019-03-18T00:44:07.148Z,98.00
2019-03-18T00:44:39.954Z,97.90
2019-03-18T00:45:15.250Z,97.90
2019-03-18T00:45:47.007Z,98.20
2019-03-18T00:46:19.518Z,98.00
2019-03-18T00:46:52.359Z,98.20
2019-03-18T00:47:24.848Z,98.40
2019-03-18T00:47:57.372Z,98.40
2019-03-18T00:48:29.900Z,98.40
2019-03-18T00:49:02.762Z,98.30
2019-03-18T00:49:35.650Z,98.40
2019-03-18T00:50:08.476Z,98.40
2019-03-18T00:50:41.272Z,98.10
2019-03-18T00:51:14.031Z,98.20
2019-03-18T00:51:46.551Z,98.00
2019-03-18T00:52:19.048Z,97.90
2019-03-18T00:52:51.894Z,97.90
2019-03-18T00:53:24.705Z,97.90
2019-03-18T00:53:57.564Z,98.00
2019-03-18T00:54:30.052Z,98.00
2019-03-18T00:55:02.548Z,98.00
2019-03-18T00:55:35.022Z,97.60
2019-03-18T00:56:07.609Z,97.80
2019-03-18T00:56:40.355Z,97.40
2019-03-18T00:57:12.827Z,97.40
2019-03-18T00:57:45.329Z,97.40
2019-03-18T00:58:17.818Z,97.30
2019-03-18T00:58:50.334Z,97.20
2019-03-18T00:59:23.206Z,97.10
2019-03-18T00:59:55.679Z,97.00
2019-03-18T01:00:28.164Z,97.20
2019-03-18T01:01:00.995Z,97.60
2019-03-18T01:01:33.480Z,97.40
2019-03-18T01:02:05.950Z,97.20
2019-03-18T01:02:38.779Z,97.20
2019-03-18T01:03:11.410Z,97.40
2019-03-18T01:03:43.947Z,97.40
2019-03-18T01:04:16.789Z,97.20
2019-03-18T01:04:49.668Z,97.20
2019-03-18T01:05:22.453Z,97.20
2019-03-18T01:05:54.925Z,97.30
2019-03-18T01:06:27.402Z,97.40
2019-03-18T01:07:00.233Z,97.20
2019-03-18T01:07:32.715Z,97.20
2019-03-18T01:08:05.556Z,97.10
2019-03-18T01:08:38.039Z,97.30
2019-03-18T01:09:10.543Z,97.30
2019-03-18T01:09:43.049Z,97.20
2019-03-18T01:10:15.530Z,97.40
2019-03-18T01:10:48.021Z,97.40
2019-03-18T01:11:20.889Z,97.50
2019-03-18T01:11:53.358Z,97.70
2019-03-18T01:12:25.841Z,98.00
2019-03-18T01:12:58.317Z,97.60
2019-03-18T01:13:30.808Z,97.60
2019-03-18T01:14:03.316Z,97.60
2019-03-18T01:14:36.107Z,97.50
2019-03-18T01:15:08.661Z,97.50
2019-03-18T01:15:41.147Z,97.70
2019-03-18T01:16:13.694Z,97.70
2019-03-18T01:16:46.174Z,97.50
2019-03-18T01:17:18.655Z,97.40
2019-03-18T01:17:51.137Z,97.50
2019-03-18T01:18:23.942Z,97.60
2019-03-18T01:18:56.437Z,97.50
2019-03-18T01:19:28.928Z,97.50
2019-03-18T01:20:01.400Z,97.60
2019-03-18T01:20:34.302Z,97.50
2019-03-18T01:21:06.773Z,97.60
2019-03-18T01:21:39.466Z,97.70
2019-03-18T01:22:11.943Z,97.80
2019-03-18T01:22:44.728Z,97.50
2019-03-18T01:23:17.596Z,97.50
2019-03-18T01:23:50.070Z,97.60
2019-03-18T01:24:22.865Z,97.60
2019-03-18T01:24:55.352Z,97.50
2019-03-18T01:25:27.833Z,97.70
2019-03-18T01:26:00.337Z,97.40
2019-03-18T01:26:32.816Z,97.40
2019-03-18T01:27:05.603Z,97.30
2019-03-18T01:27:38.347Z,97.40
2019-03-18T01:28:11.131Z,97.30
2019-03-18T01:28:43.615Z,97.40
2019-03-18T01:29:16.100Z,97.30
2019-03-18T01:29:48.595Z,97.40
2019-03-18T01:30:21.058Z,97.30
2019-03-18T01:30:53.550Z,97.50
2019-03-18T01:31:26.073Z,97.50
2019-03-18T01:31:58.555Z,97.60
2019-03-18T01:32:31.036Z,97.70
2019-03-18T01:33:03.556Z,97.60
2019-03-18T01:33:36.333Z,97.30
2019-03-18T01:34:08.814Z,97.20
2019-03-18T01:34:41.633Z,97.20
2019-03-18T01:35:14.098Z,97.20
2019-03-18T01:35:46.891Z,97.20
2019-03-18T01:36:19.762Z,97.20
2019-03-18T01:36:52.282Z,97.20
2019-03-18T01:37:24.754Z,97.10
2019-03-18T01:37:57.568Z,97.10
2019-03-18T01:38:30.055Z,97.10
2019-03-18T01:39:03.492Z,97.00
2019-03-18T01:39:35.992Z,97.10
2019-03-18T01:40:08.782Z,97.10
2019-03-18T01:40:41.276Z,97.20
2019-03-18T01:41:13.749Z,97.20
2019-03-18T01:41:46.245Z,97.30
2019-03-18T01:42:18.752Z,97.40
2019-03-18T01:42:51.851Z,97.30
2019-03-18T01:43:25.023Z,97.30
2019-03-18T01:43:57.532Z,97.40
2019-03-18T01:44:30.589Z,97.40
2019-03-18T01:45:03.387Z,97.20
2019-03-18T01:45:40.717Z,96.90
2019-03-18T01:46:10.162Z,96.90
2019-03-18T01:46:42.641Z,96.90
2019-03-18T01:47:15.434Z,97.00
2019-03-18T01:47:48.052Z,97.00
2019-03-18T01:48:20.866Z,97.10
2019-03-18T01:48:53.346Z,97.10
2019-03-18T01:49:26.216Z,97.30
2019-03-18T01:49:59.384Z,97.10
2019-03-18T01:50:31.880Z,97.20
2019-03-18T01:51:04.359Z,97.20
2019-03-18T01:51:36.944Z,97.30
2019-03-18T01:52:09.419Z,97.40
2019-03-18T01:52:41.898Z,97.40
2019-03-18T01:53:14.403Z,97.10
2019-03-18T01:53:47.319Z,97.00
2019-03-18T01:54:20.372Z,97.20
2019-03-18T01:54:53.304Z,97.10
2019-03-18T01:55:25.788Z,96.90
2019-03-18T01:55:58.548Z,96.90
2019-03-18T01:56:31.024Z,96.70
2019-03-18T01:57:03.499Z,96.50
2019-03-18T01:57:35.970Z,96.50
2019-03-18T01:58:08.496Z,96.60
2019-03-18T01:58:41.237Z,96.40
2019-03-18T01:59:13.694Z,96.70
2019-03-18T01:59:46.154Z,96.60
2019-03-18T02:00:18.949Z,96.60
2019-03-18T02:00:51.446Z,96.50
2019-03-18T02:01:24.191Z,96.60
2019-03-18T02:01:56.656Z,96.40
2019-03-18T02:02:29.136Z,96.40
2019-03-18T02:03:01.966Z,96.40
2019-03-18T02:03:34.444Z,96.40
2019-03-18T02:04:06.955Z,96.50
2019-03-18T02:04:40.008Z,96.60
2019-03-18T02:05:12.462Z,96.50
2019-03-18T02:05:44.935Z,96.50
2019-03-18T02:06:17.407Z,96.70
2019-03-18T02:06:49.903Z,96.60
2019-03-18T02:07:22.364Z,96.50
2019-03-18T02:07:54.847Z,96.60
2019-03-18T02:08:27.772Z,96.50
2019-03-18T02:09:00.266Z,96.70
2019-03-18T02:09:32.754Z,96.60
2019-03-18T02:10:06.210Z,96.70
2019-03-18T02:10:38.680Z,96.60
2019-03-18T02:11:11.150Z,96.40
2019-03-18T02:11:43.890Z,96.30
2019-03-18T02:12:16.355Z,96.20
2019-03-18T02:12:49.437Z,96.30
2019-03-18T02:13:21.890Z,96.30
2019-03-18T02:13:54.640Z,96.20
2019-03-18T02:14:27.778Z,96.30
2019-03-18T02:15:00.377Z,96.30
2019-03-18T02:15:32.852Z,96.40
2019-03-18T02:16:05.678Z,96.40
2019-03-18T02:16:38.403Z,96.50
2019-03-18T02:17:11.162Z,96.40
2019-03-18T02:17:43.640Z,96.60
2019-03-18T02:18:16.097Z,96.50
2019-03-18T02:18:48.852Z,96.50
2019-03-18T02:19:21.316Z,96.50
2019-03-18T02:19:54.150Z,96.30
2019-03-18T02:20:26.669Z,96.30
2019-03-18T02:20:59.139Z,96.30
2019-03-18T02:21:31.611Z,96.50
2019-03-18T02:22:04.073Z,96.40
2019-03-18T02:22:36.559Z,96.30
2019-03-18T02:23:09.398Z,96.50
2019-03-18T02:23:42.151Z,96.50
2019-03-18T02:24:14.650Z,96.10
2019-03-18T02:24:47.121Z,96.20
2019-03-18T02:25:19.964Z,96.10
2019-03-18T02:25:52.471Z,96.20
2019-03-18T02:26:24.943Z,96.30
2019-03-18T02:26:57.411Z,96.30
2019-03-18T02:27:29.876Z,96.40
2019-03-18T02:28:02.334Z,96.50
2019-03-18T02:28:35.506Z,96.60
2019-03-18T02:29:08.274Z,96.60
2019-03-18T02:29:40.763Z,96.70
2019-03-18T02:30:13.356Z,96.70
2019-03-18T02:30:45.828Z,96.60
2019-03-18T02:31:18.342Z,96.70
2019-03-18T02:31:51.178Z,96.80
2019-03-18T02:32:24.034Z,96.60
2019-03-18T02:32:56.520Z,96.60
2019-03-18T02:33:29.014Z,96.80
2019-03-18T02:34:02.044Z,96.70
2019-03-18T02:34:34.507Z,96.70
2019-03-18T02:35:07.091Z,96.70
2019-03-18T02:35:39.558Z,96.70
2019-03-18T02:36:12.043Z,96.70
2019-03-18T02:36:44.558Z,96.80
2019-03-18T02:37:17.019Z,96.70
2019-03-18T02:37:49.783Z,96.90
2019-03-18T02:38:22.545Z,96.70
2019-03-18T02:38:55.002Z,96.80
2019-03-18T02:39:27.468Z,96.70
2019-03-18T02:40:00.472Z,96.60
2019-03-18T02:40:33.337Z,96.60
2019-03-18T02:41:05.811Z,96.70
2019-03-18T02:41:38.567Z,96.60
2019-03-18T02:42:11.064Z,96.80
2019-03-18T02:42:43.545Z,96.40
2019-03-18T02:43:16.010Z,96.50
2019-03-18T02:43:48.491Z,96.60
2019-03-18T02:44:20.944Z,96.40
2019-03-18T02:44:53.832Z,96.40
2019-03-18T02:45:27.018Z,96.20
2019-03-18T02:46:09.950Z,96.20
2019-03-18T02:46:33.751Z,96.30
2019-03-18T02:47:06.228Z,96.30
2019-03-18T02:47:38.719Z,96.30
2019-03-18T02:48:11.481Z,96.30
2019-03-18T02:48:43.954Z,96.20
2019-03-18T02:49:16.433Z,96.20
2019-03-18T02:49:48.920Z,96.00
2019-03-18T02:50:21.430Z,96.30
2019-03-18T02:50:54.183Z,96.00
2019-03-18T02:51:26.648Z,95.90
2019-03-18T02:51:59.415Z,95.80
2019-03-18T02:52:31.893Z,95.80
2019-03-18T02:53:04.660Z,95.90
2019-03-18T02:53:37.123Z,95.90
2019-03-18T02:54:09.627Z,95.60
2019-03-18T02:54:42.077Z,95.70
2019-03-18T02:55:15.411Z,95.80
2019-03-18T02:55:47.893Z,95.60
2019-03-18T02:56:20.504Z,95.50
2019-03-18T02:56:52.969Z,95.40
2019-03-18T02:57:25.453Z,95.50
2019-03-18T02:57:57.936Z,95.50
2019-03-18T02:58:30.728Z,95.60
2019-03-18T02:59:03.212Z,95.50
2019-03-18T02:59:35.689Z,95.50
2019-03-18T03:00:09.102Z,95.40
2019-03-18T03:00:41.936Z,95.40
2019-03-18T03:01:14.979Z,95.50
2019-03-18T03:01:47.455Z,95.60
2019-03-18T03:02:19.937Z,95.50
2019-03-18T03:02:52.409Z,95.50
2019-03-18T03:03:24.878Z,95.70
2019-03-18T03:03:57.393Z,95.40
2019-03-18T03:04:30.077Z,95.20
2019-03-18T03:05:02.795Z,95.30
2019-03-18T03:05:36.282Z,95.40
2019-03-18T03:06:08.736Z,95.30
2019-03-18T03:06:41.204Z,95.40
2019-03-18T03:07:13.680Z,95.30
2019-03-18T03:07:46.167Z,95.30
2019-03-18T03:08:19.279Z,95.10
2019-03-18T03:08:52.131Z,95.20
2019-03-18T03:09:24.624Z,95.30
2019-03-18T03:09:57.087Z,95.20
2019-03-18T03:10:29.553Z,95.10
2019-03-18T03:11:02.028Z,95.10
2019-03-18T03:11:34.765Z,95.00
2019-03-18T03:12:07.294Z,95.20
2019-03-18T03:12:39.765Z,95.00
2019-03-18T03:13:12.521Z,94.60
2019-03-18T03:13:45.287Z,94.60
2019-03-18T03:14:17.775Z,94.50
2019-03-18T03:14:50.657Z,94.50
2019-03-18T03:15:23.107Z,94.70
2019-03-18T03:15:55.996Z,94.70
2019-03-18T03:16:28.463Z,94.80
2019-03-18T03:17:01.315Z,94.80
2019-03-18T03:17:33.805Z,94.60
2019-03-18T03:18:06.564Z,94.70
2019-03-18T03:18:39.037Z,94.70
2019-03-18T03:19:11.523Z,94.60
2019-03-18T03:19:44.594Z,94.70
2019-03-18T03:20:17.116Z,94.50
2019-03-18T03:20:49.588Z,94.60
2019-03-18T03:21:22.049Z,94.50
2019-03-18T03:21:54.530Z,94.40
2019-03-18T03:22:26.996Z,94.50
2019-03-18T03:22:59.778Z,94.60
2019-03-18T03:23:32.251Z,94.40
2019-03-18T03:24:04.733Z,94.00
2019-03-18T03:24:37.200Z,94.00
2019-03-18T03:25:09.907Z,94.10
2019-03-18T03:25:42.394Z,94.10
2019-03-18T03:26:15.149Z,94.10
2019-03-18T03:26:47.617Z,94.30
2019-03-18T03:27:20.391Z,94.40
2019-03-18T03:27:53.131Z,94.40
2019-03-18T03:28:25.595Z,94.30
2019-03-18T03:28:58.095Z,94.30
2019-03-18T03:29:30.569Z,94.30
2019-03-18T03:30:03.522Z,94.40
2019-03-18T03:30:36.004Z,94.40
2019-03-18T03:31:08.773Z,94.40
2019-03-18T03:31:41.237Z,94.30
2019-03-18T03:32:13.725Z,94.00
2019-03-18T03:32:46.232Z,94.00
2019-03-18T03:33:19.021Z,94.20
2019-03-18T03:33:51.545Z,94.00
2019-03-18T03:34:24.041Z,94.10
2019-03-18T03:34:56.815Z,94.00
2019-03-18T03:35:29.645Z,94.00
2019-03-18T03:36:02.427Z,94.10
2019-03-18T03:36:34.955Z,94.10
2019-03-18T03:37:07.732Z,94.20
2019-03-18T03:37:40.212Z,94.20
2019-03-18T03:38:12.824Z,94.40
2019-03-18T03:38:45.306Z,94.10
2019-03-18T03:39:17.772Z,94.10
2019-03-18T03:39:50.234Z,94.10
2019-03-18T03:40:22.733Z,94.20
2019-03-18T03:40:55.308Z,94.20
2019-03-18T03:41:27.770Z,94.00
2019-03-18T03:42:00.393Z,94.00
2019-03-18T03:42:32.860Z,94.00
2019-03-18T03:43:05.336Z,94.10
2019-03-18T03:43:37.821Z,93.90
2019-03-18T03:44:10.560Z,93.90
2019-03-18T03:44:43.313Z,94.00
2019-03-18T03:45:16.045Z,93.90
2019-03-18T03:45:48.875Z,93.90
2019-03-18T03:46:22.869Z,93.90
2019-03-18T03:46:55.344Z,94.10
2019-03-18T03:47:28.202Z,94.10
2019-03-18T03:48:00.969Z,93.90
2019-03-18T03:48:33.466Z,93.70
2019-03-18T03:49:05.903Z,93.90
2019-03-18T03:49:38.375Z,93.80
2019-03-18T03:50:10.975Z,93.80
2019-03-18T03:50:43.469Z,93.70
2019-03-18T03:51:15.994Z,93.70
2019-03-18T03:51:48.456Z,93.70
2019-03-18T03:52:21.302Z,93.60
2019-03-18T03:52:54.093Z,93.70
2019-03-18T03:53:30.578Z,93.70
2019-03-18T03:54:01.535Z,93.80
2019-03-18T03:54:33.984Z,93.60
2019-03-18T03:55:06.568Z,93.60
2019-03-18T03:55:39.131Z,93.60
2019-03-18T03:56:11.604Z,93.60
2019-03-18T03:56:44.368Z,93.70
2019-03-18T03:57:16.826Z,93.80
2019-03-18T03:57:49.395Z,93.70
2019-03-18T03:58:21.905Z,93.70
2019-03-18T03:58:54.483Z,93.70
2019-03-18T03:59:26.963Z,93.70
2019-03-18T03:59:59.452Z,93.70
2019-03-18T04:00:31.933Z,93.60
2019-03-18T04:01:04.896Z,93.50
2019-03-18T04:01:37.373Z,93.60
2019-03-18T04:02:10.415Z,93.60
2019-03-18T04:02:42.900Z,93.50
2019-03-18T04:03:15.363Z,93.40
2019-03-18T04:03:48.584Z,93.30
2019-03-18T04:04:21.340Z,93.30
2019-03-18T04:04:54.170Z,93.10
2019-03-18T04:05:26.633Z,93.20
2019-03-18T04:05:59.109Z,93.00
2019-03-18T04:06:31.605Z,92.90
2019-03-18T04:07:04.847Z,92.80
2019-03-18T04:07:37.611Z,92.80
2019-03-18T04:08:10.429Z,92.90
2019-03-18T04:08:43.009Z,92.90
2019-03-18T04:09:15.622Z,93.00
2019-03-18T04:09:48.402Z,93.10
2019-03-18T04:10:21.532Z,93.00
2019-03-18T04:10:54.100Z,93.10
2019-03-18T04:11:26.614Z,93.10
2019-03-18T04:11:59.043Z,92.90
2019-03-18T04:12:31.804Z,92.90
2019-03-18T04:13:04.284Z,93.00
2019-03-18T04:13:36.759Z,93.10
2019-03-18T04:14:09.226Z,93.20
2019-03-18T04:14:41.725Z,93.20
2019-03-18T04:15:14.261Z,93.20
2019-03-18T04:15:47.079Z,93.00
2019-03-18T04:16:19.555Z,93.30
2019-03-18T04:17:01.731Z,93.10
2019-03-18T04:17:27.117Z,93.00
2019-03-18T04:17:59.586Z,93.10
2019-03-18T04:18:32.569Z,93.10
2019-03-18T04:19:05.036Z,93.10
2019-03-18T04:19:37.500Z,92.90
2019-03-18T04:20:10.213Z,93.00
2019-03-18T04:20:42.694Z,92.90
2019-03-18T04:21:15.425Z,92.90
2019-03-18T04:21:50.539Z,93.10
2019-03-18T04:22:23.436Z,92.80
2019-03-18T04:22:56.380Z,92.80
2019-03-18T04:23:28.859Z,92.80
2019-03-18T04:24:01.327Z,92.80
2019-03-18T04:24:33.801Z,92.80
2019-03-18T04:25:06.307Z,92.80
2019-03-18T04:25:38.808Z,92.80
2019-03-18T04:26:11.655Z,92.90
2019-03-18T04:26:44.143Z,93.20
2019-03-18T04:27:16.610Z,93.10
2019-03-18T04:27:49.095Z,93.10
2019-03-18T04:28:21.561Z,93.00
2019-03-18T04:28:54.045Z,93.10
2019-03-18T04:29:26.519Z,93.40
2019-03-18T04:29:58.994Z,93.20
2019-03-18T04:30:31.511Z,93.10
2019-03-18T04:31:04.274Z,93.20
2019-03-18T04:31:36.730Z,93.30
2019-03-18T04:32:09.218Z,93.30
2019-03-18T04:32:42.066Z,93.40
2019-03-18T04:33:14.788Z,93.40
2019-03-18T04:33:47.271Z,93.50
2019-03-18T04:34:20.190Z,93.60
2019-03-18T04:34:52.669Z,93.60
2019-03-18T04:35:25.137Z,93.50
2019-03-18T04:35:57.613Z,93.70
2019-03-18T04:36:30.121Z,93.70
2019-03-18T04:37:02.878Z,93.80
2019-03-18T04:37:35.355Z,93.70
2019-03-18T04:38:08.197Z,93.70
2019-03-18T04:38:40.688Z,93.70
2019-03-18T04:39:13.168Z,93.80
2019-03-18T04:39:45.630Z,93.80
2019-03-18T04:40:18.108Z,93.90
2019-03-18T04:40:50.562Z,93.90
2019-03-18T04:41:23.030Z,93.80
2019-03-18T04:41:56.288Z,93.80
2019-03-18T04:42:29.366Z,93.90
2019-03-18T04:43:01.846Z,93.80
2019-03-18T04:43:34.707Z,93.80
2019-03-18T04:44:07.457Z,93.90
2019-03-18T04:44:39.934Z,94.00
2019-03-18T04:45:12.401Z,94.00
2019-03-18T04:45:45.332Z,94.10
2019-03-18T04:46:17.813Z,94.20
2019-03-18T04:46:50.300Z,94.20
2019-03-18T04:47:22.794Z,94.20
2019-03-18T04:47:55.266Z,94.30
2019-03-18T04:48:27.731Z,94.40
2019-03-18T04:49:01.094Z,94.40
2019-03-18T04:49:33.834Z,94.60
2019-03-18T04:50:06.335Z,94.40
2019-03-18T04:50:38.813Z,94.40
2019-03-18T04:51:11.276Z,94.60
2019-03-18T04:51:44.042Z,94.50
2019-03-18T04:52:16.519Z,94.40
2019-03-18T04:52:49.022Z,94.40
2019-03-18T04:53:21.546Z,94.50
2019-03-18T04:53:54.020Z,94.50
2019-03-18T04:54:27.094Z,94.50
2019-03-18T04:54:59.579Z,94.60
2019-03-18T04:55:32.052Z,94.60
2019-03-18T04:56:05.137Z,94.70
2019-03-18T04:56:37.962Z,94.60
2019-03-18T04:57:10.444Z,94.60
2019-03-18T04:57:43.222Z,94.50
2019-03-18T04:58:15.726Z,94.50
2019-03-18T04:58:48.564Z,94.50
2019-03-18T04:59:21.052Z,94.50
2019-03-18T04:59:53.547Z,94.50
2019-03-18T05:00:26.028Z,94.70
2019-03-18T05:00:58.515Z,94.70
2019-03-18T05:01:30.992Z,94.60
2019-03-18T05:02:03.467Z,94.60
2019-03-18T05:02:36.233Z,94.60
2019-03-18T05:03:09.036Z,94.50
2019-03-18T05:03:41.536Z,94.60
2019-03-18T05:04:14.023Z,94.60
2019-03-18T05:04:46.892Z,94.50
2019-03-18T05:05:19.686Z,94.50
2019-03-18T05:05:52.460Z,94.50
2019-03-18T05:06:25.574Z,94.50
2019-03-18T05:06:58.340Z,94.50
2019-03-18T05:07:31.253Z,94.80
2019-03-18T05:08:04.291Z,94.60
2019-03-18T05:08:37.063Z,94.60
2019-03-18T05:09:09.846Z,94.60
2019-03-18T05:09:42.332Z,94.70
2019-03-18T05:10:14.816Z,94.80
2019-03-18T05:10:47.702Z,94.80
2019-03-18T05:11:20.178Z,94.80
2019-03-18T05:11:53.010Z,94.70
2019-03-18T05:12:25.484Z,94.50
2019-03-18T05:12:58.231Z,94.60
2019-03-18T05:13:30.996Z,94.70
2019-03-18T05:14:03.467Z,94.80
2019-03-18T05:14:35.963Z,94.70
2019-03-18T05:15:08.841Z,94.70
2019-03-18T05:15:41.337Z,94.70
2019-03-18T05:16:14.218Z,94.80
2019-03-18T05:16:46.691Z,94.60
2019-03-18T05:17:26.502Z,94.70
2019-03-18T05:17:53.719Z,94.60
2019-03-18T05:18:26.203Z,94.50
2019-03-18T05:18:58.828Z,94.60
2019-03-18T05:19:31.678Z,94.60
2019-03-18T05:20:04.384Z,94.60
2019-03-18T05:20:37.152Z,94.60
2019-03-18T05:21:09.942Z,94.60
2019-03-18T05:21:42.427Z,94.60
2019-03-18T05:22:14.896Z,94.50
2019-03-18T05:22:47.371Z,94.40
2019-03-18T05:23:20.224Z,94.40
2019-03-18T05:23:52.694Z,94.50
2019-03-18T05:24:25.191Z,94.50
2019-03-18T05:24:57.687Z,94.40
2019-03-18T05:25:30.183Z,94.30
2019-03-18T05:26:02.659Z,94.30
2019-03-18T05:26:35.420Z,94.30
2019-03-18T05:27:08.489Z,94.50
2019-03-18T05:27:40.975Z,94.30
2019-03-18T05:28:13.745Z,94.30
2019-03-18T05:28:46.197Z,94.40
2019-03-18T05:29:18.949Z,94.30
2019-03-18T05:29:51.691Z,94.20
2019-03-18T05:30:24.170Z,94.20
2019-03-18T05:30:56.679Z,94.10
2019-03-18T05:31:29.161Z,94.20
2019-03-18T05:32:01.648Z,94.10
2019-03-18T05:32:34.138Z,94.20
2019-03-18T05:33:06.899Z,94.00
2019-03-18T05:33:39.646Z,94.10
2019-03-18T05:34:12.132Z,94.10
2019-03-18T05:34:44.606Z,94.00
2019-03-18T05:35:17.087Z,93.80
2019-03-18T05:36:00.690Z,93.90
2019-03-18T05:36:42.878Z,93.70
2019-03-18T05:37:16.208Z,93.60
2019-03-18T05:37:48.981Z,93.80
2019-03-18T05:38:21.476Z,94.00
2019-03-18T05:38:53.965Z,93.90
2019-03-18T05:39:26.413Z,93.80
2019-03-18T05:39:58.892Z,94.00
2019-03-18T05:40:31.366Z,93.70
2019-03-18T05:41:03.845Z,93.80
2019-03-18T05:41:36.310Z,93.90
2019-03-18T05:42:08.802Z,93.80
2019-03-18T05:42:41.586Z,93.70
2019-03-18T05:43:14.071Z,93.50
2019-03-18T05:43:46.810Z,93.20
2019-03-18T05:44:19.291Z,93.40
2019-03-18T05:44:51.746Z,93.60
2019-03-18T05:45:24.496Z,93.30
2019-03-18T05:45:57.267Z,93.40
2019-03-18T05:46:29.746Z,93.50
2019-03-18T05:47:02.228Z,93.30
2019-03-18T05:47:39.508Z,93.40
2019-03-18T05:48:09.020Z,93.40
2019-03-18T05:48:41.948Z,93.10
2019-03-18T05:49:14.443Z,93.00
2019-03-18T05:49:46.954Z,93.10
2019-03-18T05:50:19.432Z,93.20
2019-03-18T05:50:51.916Z,93.10
2019-03-18T05:51:24.395Z,93.10
2019-03-18T05:51:56.880Z,93.10
2019-03-18T05:52:29.382Z,93.10
2019-03-18T05:53:02.314Z,93.10
2019-03-18T05:53:34.827Z,93.40
2019-03-18T05:54:07.715Z,93.50
2019-03-18T05:54:40.178Z,93.40
2019-03-18T05:55:13.058Z,93.30
2019-03-18T05:55:52.006Z,93.30
2019-03-18T05:56:24.476Z,93.20
2019-03-18T05:56:56.970Z,93.30
2019-03-18T05:57:29.433Z,93.40
2019-03-18T05:58:02.259Z,93.30
2019-03-18T05:58:35.039Z,93.30
2019-03-18T05:59:07.789Z,93.30
2019-03-18T05:59:40.808Z,93.40
2019-03-18T06:00:13.314Z,93.20
2019-03-18T06:00:45.795Z,93.20
2019-03-18T06:01:18.674Z,93.20
2019-03-18T06:01:51.147Z,93.10
2019-03-18T06:02:23.698Z,93.00
2019-03-18T06:02:56.175Z,93.20
2019-03-18T06:03:29.007Z,93.10
2019-03-18T06:04:02.151Z,93.10
2019-03-18T06:04:34.911Z,92.90
2019-03-18T06:05:07.496Z,93.00
2019-03-18T06:05:40.266Z,92.70
2019-03-18T06:06:12.740Z,92.60
2019-03-18T06:06:45.216Z,92.80
2019-03-18T06:07:17.704Z,92.40
2019-03-18T06:07:50.166Z,92.40
2019-03-18T06:08:22.642Z,92.50
2019-03-18T06:08:55.123Z,92.40
2019-03-18T06:09:27.744Z,92.60
2019-03-18T06:10:00.556Z,92.60
2019-03-18T06:10:33.029Z,92.60
2019-03-18T06:11:05.526Z,92.60
2019-03-18T06:11:38.274Z,92.60
2019-03-18T06:12:10.752Z,92.70
2019-03-18T06:12:43.512Z,92.80
2019-03-18T06:13:16.645Z,92.90
2019-03-18T06:13:49.131Z,92.70
2019-03-18T06:14:21.904Z,92.90
2019-03-18T06:14:54.836Z,92.90
2019-03-18T06:15:27.321Z,92.90
2019-03-18T06:15:59.816Z,93.00
2019-03-18T06:16:32.612Z,93.10
2019-03-18T06:17:05.212Z,93.10
2019-03-18T06:17:37.679Z,93.10
2019-03-18T06:18:10.160Z,93.10
2019-03-18T06:18:43.316Z,93.00
2019-03-18T06:19:15.791Z,93.00
2019-03-18T06:19:48.275Z,92.80
2019-03-18T06:20:20.796Z,92.90
2019-03-18T06:20:53.254Z,93.00
2019-03-18T06:21:25.718Z,92.70
2019-03-18T06:21:58.567Z,92.70
2019-03-18T06:22:31.048Z,92.70
2019-03-18T06:23:03.535Z,92.80
2019-03-18T06:23:36.002Z,92.80
2019-03-18T06:24:08.472Z,92.60
2019-03-18T06:24:41.245Z,92.60
2019-03-18T06:25:13.728Z,92.70
2019-03-18T06:25:46.228Z,92.80
2019-03-18T06:26:18.793Z,92.90
2019-03-18T06:26:51.200Z,92.80
2019-03-18T06:27:24.080Z,92.60
2019-03-18T06:27:56.567Z,92.60
2019-03-18T06:28:29.320Z,92.20
2019-03-18T06:29:01.812Z,92.30
2019-03-18T06:29:34.847Z,92.30
2019-03-18T06:30:08.384Z,92.40
2019-03-18T06:30:41.004Z,92.60
2019-03-18T06:31:13.809Z,92.50
2019-03-18T06:31:46.281Z,92.70
2019-03-18T06:32:19.111Z,92.70
2019-03-18T06:32:51.879Z,92.60
2019-03-18T06:33:24.347Z,92.60
2019-03-18T06:33:56.831Z,92.50
2019-03-18T06:34:29.578Z,92.40
2019-03-18T06:35:02.358Z,92.50
2019-03-18T06:35:34.828Z,92.50
2019-03-18T06:36:07.302Z,92.20
2019-03-18T06:36:39.811Z,92.10
2019-03-18T06:37:12.294Z,92.00
2019-03-18T06:37:45.079Z,92.20
2019-03-18T06:38:17.578Z,92.30
2019-03-18T06:38:50.347Z,92.10
2019-03-18T06:39:22.836Z,92.00
2019-03-18T06:39:55.676Z,92.00
2019-03-18T06:40:28.151Z,91.60
2019-03-18T06:41:01.268Z,91.70
2019-03-18T06:41:34.026Z,91.80
2019-03-18T06:42:06.545Z,91.90
2019-03-18T06:42:39.006Z,92.00
2019-03-18T06:43:11.820Z,91.60
2019-03-18T06:43:44.576Z,91.70
2019-03-18T06:44:17.060Z,91.30
2019-03-18T06:44:49.910Z,91.50
2019-03-18T06:45:22.385Z,91.60
2019-03-18T06:45:55.145Z,91.70
2019-03-18T06:46:27.624Z,91.70
2019-03-18T06:47:00.691Z,91.70
2019-03-18T06:47:33.190Z,91.60
2019-03-18T06:48:05.710Z,91.50
2019-03-18T06:48:38.134Z,91.60
2019-03-18T06:49:10.617Z,91.70
2019-03-18T06:49:43.075Z,91.70
2019-03-18T06:50:15.562Z,91.30
2019-03-18T06:50:48.039Z,91.30
2019-03-18T06:51:20.517Z,91.40
2019-03-18T06:51:52.990Z,91.60
2019-03-18T06:52:25.459Z,91.70
2019-03-18T06:52:57.984Z,91.20
2019-03-18T06:53:30.873Z,91.30
2019-03-18T06:54:03.710Z,91.40
2019-03-18T06:54:36.886Z,91.60
2019-03-18T06:55:09.857Z,91.40
2019-03-18T06:55:42.348Z,91.30
2019-03-18T06:56:14.824Z,91.30
2019-03-18T06:56:47.292Z,90.80
2019-03-18T06:57:19.758Z,90.90
2019-03-18T06:57:52.230Z,90.50
2019-03-18T06:58:24.744Z,90.70
2019-03-18T06:58:57.616Z,90.80
2019-03-18T06:59:30.076Z,90.70
2019-03-18T07:00:02.778Z,90.70
2019-03-18T07:00:35.251Z,90.70
2019-03-18T07:01:07.737Z,90.60